Time,TemperatureF,DewpointF,PressureIn,WindDirection,WindDirectionDegrees,WindSpeedMPH,WindSpeedGustMPH,Humidity,HourlyPrecipIn,Conditions,Clouds,dailyrainin,SoftwareType,DateUTC
2013-03-18 00:15:00,49.8,49.3,29.62,WSW,247,0.0,-999.0,98,-99.99,,,0.00,Acu-Link.com,2013-03-18 05:15:00,
2013-03-18 00:30:00,49.8,49.3,29.62,WSW,247,0.0,-999.0,98,-99.99,,,0.00,Acu-Link.com,2013-03-18 05:30:00,
2013-03-18 00:45:00,56.1,54.7,29.62,North,0,2.7,-999.0,95,-99.99,,,0.00,Acu-Link.com,2013-03-18 05:45:00,
2013-03-18 01:00:00,57.2,54.0,29.65,NNE,22,0.0,-999.0,89,-99.99,,,0.00,Acu-Link.com,2013-03-18 06:00:00,
2013-03-18 01:15:00,57.7,53.3,29.65,NE,45,2.7,-999.0,85,-99.99,,,0.00,Acu-Link.com,2013-03-18 06:15:00,
2013-03-18 01:31:00,56.8,53.3,29.64,NNW,337,1.1,-999.0,88,-99.99,,,0.00,Acu-Link.com,2013-03-18 06:31:00,
2013-03-18 01:46:00,55.9,52.7,29.64,South,180,0.0,-999.0,89,-99.99,,,0.00,Acu-Link.com,2013-03-18 06:46:00,
2013-03-18 02:01:00,54.7,52.4,29.65,SSE,157,0.0,-999.0,92,-99.99,,,0.00,Acu-Link.com,2013-03-18 07:01:00,
2013-03-18 02:31:00,52.7,52.2,29.64,South,180,0.0,-999.0,98,-99.99,,,0.00,Acu-Link.com,2013-03-18 07:31:00,
2013-03-18 02:47:00,53.8,53.2,29.64,South,180,2.7,-999.0,98,-99.99,,,0.00,Acu-Link.com,2013-03-18 07:47:00,
2013-03-18 03:02:00,54.0,53.4,29.63,SSW,202,0.0,-999.0,98,-99.99,,,0.00,Acu-Link.com,2013-03-18 08:02:00,
2013-03-18 03:17:00,54.1,53.6,29.63,SSE,157,1.6,-999.0,98,-99.99,,,0.00,Acu-Link.com,2013-03-18 08:17:00,
2013-03-18 03:32:00,53.8,53.2,29.63,NNE,22,0.0,-999.0,98,-99.99,,,0.00,Acu-Link.com,2013-03-18 08:32:00,
2013-03-18 03:47:00,52.7,52.2,29.63,NNE,22,0.0,-999.0,98,-99.99,,,0.00,Acu-Link.com,2013-03-18 08:47:00,
2013-03-18 04:02:00,52.9,52.3,29.63,South,180,2.2,-999.0,98,-99.99,,,0.00,Acu-Link.com,2013-03-18 09:02:00,
2013-03-18 04:18:00,53.8,53.2,29.63,South,180,1.1,-999.0,98,-99.99,,,0.00,Acu-Link.com,2013-03-18 09:18:00,
2013-03-18 04:33:00,53.4,52.9,29.63,South,180,1.6,-999.0,98,-99.99,,,0.00,Acu-Link.com,2013-03-18 09:33:00,
2013-03-18 04:48:00,53.6,53.0,29.63,South,180,1.1,-999.0,98,-99.99,,,0.00,Acu-Link.com,2013-03-18 09:48:00,
2013-03-18 05:03:00,53.6,53.0,29.62,SSE,157,2.2,-999.0,98,-99.99,,,0.00,Acu-Link.com,2013-03-18 10:03:00,
2013-03-18 05:18:00,54.1,53.6,29.62,South,180,1.6,-999.0,98,-99.99,,,0.00,Acu-Link.com,2013-03-18 10:18:00,
2013-03-18 05:34:00,54.7,54.1,29.63,South,180,2.2,-999.0,98,-99.99,,,0.00,Acu-Link.com,2013-03-18 10:34:00,
2013-03-18 05:49:00,54.5,53.9,29.63,SSE,157,2.2,-999.0,98,-99.99,,,0.00,Acu-Link.com,2013-03-18 10:49:00,
2013-03-18 06:04:00,54.0,53.4,29.64,SSE,157,1.6,-999.0,98,-99.99,,,0.00,Acu-Link.com,2013-03-18 11:04:00,
2013-03-18 06:19:00,54.1,53.6,29.64,South,180,2.2,-999.0,98,-99.99,,,0.00,Acu-Link.com,2013-03-18 11:19:00,
2013-03-18 06:34:00,54.0,53.4,29.65,South,180,2.2,-999.0,98,-99.99,,,0.00,Acu-Link.com,2013-03-18 11:34:00,
2013-03-18 06:50:00,53.6,53.0,29.66,South,180,1.6,-999.0,98,-99.99,,,0.00,Acu-Link.com,2013-03-18 11:50:00,
2013-03-18 07:05:00,53.2,52.7,29.66,South,180,0.0,-999.0,98,-99.99,,,0.00,Acu-Link.com,2013-03-18 12:05:00,
2013-03-18 07:20:00,52.3,51.8,29.66,South,180,0.0,-999.0,98,-99.99,,,0.00,Acu-Link.com,2013-03-18 12:20:00,
2013-03-18 07:35:00,51.8,51.3,29.67,South,180,0.0,-999.0,98,-99.99,,,0.00,Acu-Link.com,2013-03-18 12:35:00,
2013-03-18 07:51:00,51.3,50.7,29.69,South,180,0.0,-999.0,98,-99.99,,,0.00,Acu-Link.com,2013-03-18 12:51:00,
2013-03-18 08:21:00,50.4,49.8,29.70,South,180,0.0,-999.0,98,-99.99,,,0.00,Acu-Link.com,2013-03-18 13:21:00,
2013-03-18 08:36:00,52.2,51.6,29.70,NNE,22,0.0,-999.0,98,-99.99,,,0.00,Acu-Link.com,2013-03-18 13:36:00,
2013-03-18 08:51:00,55.0,53.6,29.72,North,0,1.6,-999.0,95,-99.99,,,0.00,Acu-Link.com,2013-03-18 13:51:00,
2013-03-18 09:07:00,58.6,58.1,29.73,West,270,0.0,-999.0,98,-99.99,,,0.00,Acu-Link.com,2013-03-18 14:07:00,
2013-03-18 09:22:00,59.9,59.3,29.73,South,180,1.6,-999.0,98,-99.99,,,0.00,Acu-Link.com,2013-03-18 14:22:00,
2013-03-18 09:52:00,66.2,53.2,29.75,NE,45,6.3,-999.0,63,-99.99,,,0.00,Acu-Link.com,2013-03-18 14:52:00,
2013-03-18 10:07:00,67.6,47.8,29.76,NE,45,5.8,-999.0,49,-99.99,,,0.00,Acu-Link.com,2013-03-18 15:07:00,
2013-03-18 10:23:00,68.0,47.0,29.77,North,0,7.8,-999.0,47,-99.99,,,0.00,Acu-Link.com,2013-03-18 15:23:00,
2013-03-18 10:38:00,67.3,46.4,29.78,NNE,22,10.3,-999.0,47,-99.99,,,0.00,Acu-Link.com,2013-03-18 15:38:00,
2013-03-18 10:53:00,66.7,46.4,29.79,ENE,67,10.3,-999.0,48,-99.99,,,0.00,Acu-Link.com,2013-03-18 15:53:00,
2013-03-18 11:09:00,66.6,47.9,29.80,NNW,337,7.4,-999.0,51,-99.99,,,0.00,Acu-Link.com,2013-03-18 16:09:00,
2013-03-18 11:24:00,67.5,49.2,29.80,East,90,6.3,-999.0,52,-99.99,,,0.00,Acu-Link.com,2013-03-18 16:24:00,
2013-03-18 11:39:00,67.6,49.4,29.81,NNE,22,13.0,-999.0,52,-99.99,,,0.00,Acu-Link.com,2013-03-18 16:39:00,
2013-03-18 11:54:00,68.5,50.2,29.81,NNE,22,9.8,-999.0,52,-99.99,,,0.00,Acu-Link.com,2013-03-18 16:54:00,
2013-03-18 12:09:00,68.2,50.4,29.81,NNW,337,6.7,-999.0,53,-99.99,,,0.00,Acu-Link.com,2013-03-18 17:09:00,
2013-03-18 12:24:00,69.8,51.4,29.81,NNW,337,7.8,-999.0,52,-99.99,,,0.00,Acu-Link.com,2013-03-18 17:24:00,
2013-03-18 12:40:00,68.9,50.5,29.82,NNW,337,9.4,-999.0,52,-99.99,,,0.00,Acu-Link.com,2013-03-18 17:40:00,
2013-03-18 12:55:00,70.3,51.9,29.82,North,0,6.3,-999.0,52,-99.99,,,0.00,Acu-Link.com,2013-03-18 17:55:00,
2013-03-18 13:10:00,70.0,51.0,29.81,NNE,22,5.1,-999.0,51,-99.99,,,0.00,Acu-Link.com,2013-03-18 18:10:00,
2013-03-18 13:25:00,70.2,51.7,29.82,NNE,22,5.1,-999.0,52,-99.99,,,0.00,Acu-Link.com,2013-03-18 18:25:00,
2013-03-18 13:41:00,71.6,52.0,29.82,NNE,22,6.3,-999.0,50,-99.99,,,0.00,Acu-Link.com,2013-03-18 18:41:00,
2013-03-18 14:11:00,72.9,51.4,29.81,North,0,7.8,-999.0,47,-99.99,,,0.00,Acu-Link.com,2013-03-18 19:11:00,
2013-03-18 14:26:00,72.3,51.5,29.81,NNE,22,4.7,-999.0,48,-99.99,,,0.00,Acu-Link.com,2013-03-18 19:26:00,
2013-03-18 14:41:00,73.2,51.2,29.81,NNE,22,5.8,-999.0,46,-99.99,,,0.00,Acu-Link.com,2013-03-18 19:41:00,
2013-03-18 14:57:00,73.0,51.6,29.82,North,0,6.7,-999.0,47,-99.99,,,0.00,Acu-Link.com,2013-03-18 19:57:00,
2013-03-18 15:12:00,73.4,51.3,29.81,NE,45,8.3,-999.0,46,-99.99,,,0.00,Acu-Link.com,2013-03-18 20:12:00,
2013-03-18 15:27:00,73.2,51.8,29.80,NW,315,2.7,-999.0,47,-99.99,,,0.00,Acu-Link.com,2013-03-18 20:27:00,
2013-03-18 15:42:00,74.7,51.9,29.80,NNW,337,5.1,-999.0,45,-99.99,,,0.00,Acu-Link.com,2013-03-18 20:42:00,
2013-03-18 15:58:00,75.2,51.8,29.80,NNE,22,4.3,-999.0,44,-99.99,,,0.00,Acu-Link.com,2013-03-18 20:58:00,
2013-03-18 16:13:00,75.9,51.8,29.81,NW,315,3.8,-999.0,43,-99.99,,,0.00,Acu-Link.com,2013-03-18 21:13:00,
2013-03-18 16:28:00,75.7,51.6,29.81,NNW,337,4.7,-999.0,43,-99.99,,,0.00,Acu-Link.com,2013-03-18 21:28:00,
2013-03-18 16:43:00,74.8,50.8,29.81,NNW,337,3.8,-999.0,43,-99.99,,,0.00,Acu-Link.com,2013-03-18 21:43:00,
2013-03-18 16:58:00,74.7,51.3,29.81,NNW,337,4.3,-999.0,44,-99.99,,,0.00,Acu-Link.com,2013-03-18 21:58:00,
2013-03-18 17:14:00,74.1,50.8,29.82,NNE,22,6.3,-999.0,44,-99.99,,,0.00,Acu-Link.com,2013-03-18 22:14:00,
2013-03-18 17:29:00,73.0,50.4,29.82,North,0,5.8,-999.0,45,-99.99,,,0.00,Acu-Link.com,2013-03-18 22:29:00,
2013-03-18 17:44:00,73.0,50.4,29.82,NNE,22,3.8,-999.0,45,-99.99,,,0.00,Acu-Link.com,2013-03-18 22:44:00,
2013-03-18 17:59:00,72.7,50.7,29.82,NNW,337,3.8,-999.0,46,-99.99,,,0.00,Acu-Link.com,2013-03-18 22:59:00,
2013-03-18 18:14:00,72.0,50.0,29.83,NNE,22,6.3,-999.0,46,-99.99,,,0.00,Acu-Link.com,2013-03-18 23:14:00,
2013-03-18 18:30:00,71.6,50.3,29.83,NE,45,4.3,-999.0,47,-99.99,,,0.00,Acu-Link.com,2013-03-18 23:30:00,
2013-03-18 18:45:00,70.9,49.6,29.83,NNW,337,4.3,-999.0,47,-99.99,,,0.00,Acu-Link.com,2013-03-18 23:45:00,
2013-03-18 19:00:00,70.2,49.5,29.84,NW,315,3.1,-999.0,48,-99.99,,,0.00,Acu-Link.com,2013-03-19 00:00:00,
2013-03-18 19:15:00,69.6,49.6,29.85,NE,45,3.8,-999.0,49,-99.99,,,0.00,Acu-Link.com,2013-03-19 00:15:00,
2013-03-18 19:30:00,69.1,49.7,29.84,NE,45,2.2,-999.0,50,-99.99,,,0.00,Acu-Link.com,2013-03-19 00:30:00,
2013-03-18 20:01:00,65.7,48.6,29.86,NE,45,3.1,-999.0,54,-99.99,,,0.00,Acu-Link.com,2013-03-19 01:01:00,
2013-03-18 20:16:00,64.4,48.4,29.87,ESE,112,1.1,-999.0,56,-99.99,,,0.00,Acu-Link.com,2013-03-19 01:16:00,
2013-03-18 20:31:00,63.1,48.1,29.87,NNE,22,2.2,-999.0,58,-99.99,,,0.00,Acu-Link.com,2013-03-19 01:31:00,
2013-03-18 20:47:00,61.0,47.9,29.87,East,90,0.0,-999.0,62,-99.99,,,0.00,Acu-Link.com,2013-03-19 01:47:00,
2013-03-18 21:02:00,59.2,47.8,29.87,NNE,22,0.0,-999.0,66,-99.99,,,0.00,Acu-Link.com,2013-03-19 02:02:00,
2013-03-18 21:17:00,58.6,48.1,29.88,NNE,22,1.6,-999.0,68,-99.99,,,0.00,Acu-Link.com,2013-03-19 02:17:00,
2013-03-18 21:32:00,57.4,47.3,29.88,NE,45,0.0,-999.0,69,-99.99,,,0.00,Acu-Link.com,2013-03-19 02:32:00,
2013-03-18 21:47:00,56.1,47.9,29.88,East,90,0.0,-999.0,74,-99.99,,,0.00,Acu-Link.com,2013-03-19 02:47:00,
2013-03-18 22:02:00,54.5,47.8,29.89,NE,45,0.0,-999.0,78,-99.99,,,0.00,Acu-Link.com,2013-03-19 03:02:00,
2013-03-18 22:17:00,53.1,47.4,29.89,NW,315,0.0,-999.0,81,-99.99,,,0.00,Acu-Link.com,2013-03-19 03:17:00,
2013-03-18 22:18:00,53.1,47.4,29.89,NW,315,0.0,-999.0,81,-99.99,,,0.00,Acu-Link.com,2013-03-19 03:18:00,
2013-03-18 22:33:00,52.5,48.1,29.89,NE,45,1.6,-999.0,85,-99.99,,,0.00,Acu-Link.com,2013-03-19 03:33:00,
2013-03-18 22:48:00,51.4,47.4,29.89,North,0,0.0,-999.0,86,-99.99,,,0.00,Acu-Link.com,2013-03-19 03:48:00,
2013-03-18 23:03:00,51.4,48.6,29.88,NNE,22,1.6,-999.0,90,-99.99,,,0.00,Acu-Link.com,2013-03-19 04:03:00,
2013-03-18 23:18:00,54.5,49.8,29.89,NNE,22,0.0,-999.0,84,-99.99,,,0.00,Acu-Link.com,2013-03-19 04:18:00,
2013-03-18 23:34:00,52.9,49.1,29.89,East,90,0.0,-999.0,87,-99.99,,,0.00,Acu-Link.com,2013-03-19 04:34:00,
2013-03-18 23:49:00,51.4,49.2,29.89,South,180,0.0,-999.0,92,-99.99,,,0.00,Acu-Link.com,2013-03-19 04:49:00,